Time;durP1;ratioP1;P1;durP2;ratioP2;P2;SDS_P1;SDS_P2;PMS_P1;PMS_P2;Temp;Humidity;BMP_temperature;BMP_pressure;BME280_temperature;BME280_humidity;BME280_pressure;Samples;Min_cycle;Max_cycle;Signal;HPM_P1;HPM_P2
2022/07/18 00:00:34;;;;;;;12.52;3.63;;;;;;;20.45;49.45;102315.03;5113169;27;20042;-49
2022/07/18 00:03:01;;;;;;;7.00;3.45;;;;;;;20.40;49.45;102307.63;5114838;27;20134;-53
2022/07/18 00:05:29;;;;;;;9.50;3.97;;;;;;;20.28;49.98;102310.84;5136594;27;20055;-51
2022/07/18 00:07:57;;;;;;;9.57;4.30;;;;;;;20.19;50.41;102313.44;5134158;27;20485;-52
2022/07/18 00:10:24;;;;;;;7.53;4.38;;;;;;;20.13;50.45;102314.63;5135222;27;20047;-53
2022/07/18 00:12:52;;;;;;;7.25;3.70;;;;;;;20.17;50.24;102310.13;5130053;27;20047;-52
2022/07/18 00:15:20;;;;;;;8.55;4.00;;;;;;;20.19;50.20;102302.34;5136499;27;20065;-53
2022/07/18 00:17:47;;;;;;;8.93;3.70;;;;;;;20.17;49.97;102298.25;5136623;27;20032;-53
2022/07/18 00:20:15;;;;;;;7.50;3.58;;;;;;;20.12;49.71;102301.91;5129191;27;20035;-54
2022/07/18 00:22:43;;;;;;;5.97;3.58;;;;;;;20.10;49.99;102300.56;5114936;27;20039;-54
2022/07/18 00:25:10;;;;;;;11.73;3.67;;;;;;;20.07;50.24;102298.38;5130573;27;20040;-52
2022/07/18 00:27:38;;;;;;;7.13;3.50;;;;;;;19.99;50.22;102286.84;5136153;27;20138;-53
2022/07/18 00:30:06;;;;;;;8.30;3.45;;;;;;;19.95;50.43;102290.50;5135252;27;20042;-53
2022/07/18 00:32:34;;;;;;;7.15;3.22;;;;;;;19.93;50.32;102288.03;5116993;27;20070;-46
2022/07/18 00:35:01;;;;;;;8.20;3.88;;;;;;;19.92;50.35;102286.38;5135785;27;20035;-49
2022/07/18 00:37:29;;;;;;;9.52;3.88;;;;;;;19.89;50.69;102289.75;5135705;27;20116;-48
2022/07/18 00:39:57;;;;;;;8.18;3.60;;;;;;;19.89;50.89;102292.53;5124576;27;20051;-51
2022/07/18 00:42:24;;;;;;;9.73;3.80;;;;;;;19.95;50.86;102283.03;5135119;27;20043;-48
2022/07/18 00:44:55;;;;;;;8.10;3.53;;;;;;;19.97;50.83;102291.03;5135709;27;20046;-50
2022/07/18 00:47:23;;;;;;;4.97;3.22;;;;;;;19.93;51.03;102274.19;5117254;27;20051;-49
2022/07/18 00:49:51;;;;;;;7.22;3.65;;;;;;;19.88;50.97;102279.78;5134497;27;20035;-51
2022/07/18 00:52:19;;;;;;;7.82;3.58;;;;;;;19.80;51.19;102283.22;5118614;27;20035;-50
2022/07/18 00:54:46;;;;;;;7.90;3.60;;;;;;;19.72;51.60;102281.09;5109095;27;20504;-50
2022/07/18 00:57:14;;;;;;;8.50;3.95;;;;;;;19.66;51.83;102274.78;5117188;27;20036;-49
2022/07/18 01:02:27;;;;;;;13.68;5.07;;;;;;;19.62;52.13;102270.13;5101372;27;20039;-50
2022/07/18 01:04:55;;;;;;;10.25;4.38;;;;;;;19.63;51.96;102266.25;5127517;27;20457;-48
2022/07/18 01:07:23;;;;;;;7.25;3.80;;;;;;;19.59;52.28;102269.59;5114581;27;20059;-49
2022/07/18 01:09:51;;;;;;;7.82;3.80;;;;;;;19.56;52.26;102272.94;5109634;27;20047;-46
2022/07/18 01:12:18;;;;;;;8.38;3.67;;;;;;;19.51;52.63;102264.72;5123466;27;20043;-47
2022/07/18 01:14:46;;;;;;;8.30;4.30;;;;;;;19.45;52.76;102268.63;5128706;27;20425;-50
2022/07/18 01:17:16;;;;;;;7.82;3.90;;;;;;;19.37;52.91;102263.75;5113125;27;20043;-50
2022/07/18 01:19:44;;;;;;;9.90;4.40;;;;;;;19.28;53.04;102266.31;5105380;28;20527;-50
2022/07/18 01:22:13;;;;;;;14.68;4.20;;;;;;;19.24;53.17;102264.44;5110377;27;20040;-51
2022/07/18 01:24:41;;;;;;;11.05;3.92;;;;;;;19.23;53.13;102263.63;5113470;27;20058;-48
2022/07/18 01:27:13;;;;;;;10.55;4.45;;;;;;;19.23;53.16;102260.03;5117055;27;20055;-50
2022/07/18 01:29:41;;;;;;;7.80;3.88;;;;;;;19.26;52.97;102263.03;5119230;27;20135;-50
2022/07/18 01:32:10;;;;;;;7.30;4.10;;;;;;;19.26;53.12;102262.22;5114232;27;20090;-50
2022/07/18 01:34:37;;;;;;;10.68;4.68;;;;;;;19.23;53.12;102262.81;5130113;27;20452;-49
2022/07/18 01:37:06;;;;;;;11.13;4.43;;;;;;;19.22;53.13;102255.59;5134085;27;20101;-48
2022/07/18 01:39:34;;;;;;;14.68;4.28;;;;;;;19.19;53.26;102256.19;5132974;27;20039;-51
2022/07/18 01:42:05;;;;;;;9.32;4.53;;;;;;;19.18;53.18;102254.56;5133004;27;20037;-50
2022/07/18 01:44:34;;;;;;;8.60;3.95;;;;;;;19.18;53.31;102254.56;5134568;27;20035;-47
2022/07/18 01:47:04;;;;;;;7.63;4.30;;;;;;;19.22;53.19;102255.59;5130088;27;20043;-49
2022/07/18 01:49:32;;;;;;;9.30;4.22;;;;;;;19.20;52.98;102253.16;5133668;27;20043;-50
2022/07/18 01:52:00;;;;;;;9.48;4.90;;;;;;;19.20;53.15;102261.44;5115530;27;20058;-49
2022/07/18 01:54:29;;;;;;;9.90;4.30;;;;;;;19.17;52.95;102250.97;5109837;27;20039;-48
2022/07/18 01:56:58;;;;;;;13.23;4.43;;;;;;;19.16;52.92;102255.66;5115618;27;20122;-51
2022/07/18 01:59:26;;;;;;;10.38;4.07;;;;;;;19.15;53.05;102261.50;5107888;27;20050;-49
2022/07/18 02:01:53;;;;;;;8.70;4.20;;;;;;;19.11;53.23;102247.44;5134453;27;20046;-51
2022/07/18 02:04:59;;;;;;;11.32;4.22;;;;;;;19.09;53.43;102252.41;5130671;27;20058;-49
2022/07/18 02:07:09;;;;;;;9.75;4.50;;;;;;;19.02;53.76;102251.94;5129382;27;20531;-50
2022/07/18 02:09:37;;;;;;;9.32;4.55;;;;;;;18.98;53.97;102250.03;5123586;27;20473;-48
2022/07/18 02:12:05;;;;;;;10.25;5.22;;;;;;;18.92;54.08;102247.31;5081479;28;20043;-50
2022/07/18 02:14:33;;;;;;;9.25;4.90;;;;;;;18.91;53.86;102251.22;5111364;28;20043;-47
2022/07/18 02:17:00;;;;;;;7.95;4.28;;;;;;;18.90;54.30;102240.44;5115636;27;20117;-50
2022/07/18 02:19:28;;;;;;;11.05;5.03;;;;;;;18.84;54.35;102244.38;5120830;27;20402;-50
2022/07/18 02:21:56;;;;;;;10.65;4.72;;;;;;;18.78;54.61;102235.28;5127647;27;20365;-48
2022/07/18 02:24:23;;;;;;;8.00;4.50;;;;;;;18.72;54.60;102225.38;5126806;28;20505;-46
2022/07/18 02:26:51;;;;;;;9.55;4.65;;;;;;;18.72;54.71;102215.16;5121079;28;20518;-51
2022/07/18 02:29:19;;;;;;;10.80;4.50;;;;;;;18.70;54.77;102222.09;5114389;28;20073;-51
2022/07/18 02:31:47;;;;;;;11.07;4.43;;;;;;;18.64;54.81;102218.56;5111007;28;20451;-51
2022/07/18 02:34:15;;;;;;;8.48;4.35;;;;;;;18.60;55.02;102223.00;5129459;28;20051;-46
2022/07/18 02:36:44;;;;;;;11.40;4.20;;;;;;;18.60;54.85;102225.75;5123011;28;20408;-48
2022/07/18 02:39:12;;;;;;;8.38;4.07;;;;;;;18.59;54.90;102221.34;5131854;28;20070;-52
2022/07/18 02:41:40;;;;;;;9.43;4.68;;;;;;;18.59;54.76;102226.03;5115784;28;20039;-48
2022/07/18 02:44:07;;;;;;;7.93;4.15;;;;;;;18.57;55.11;102229.09;5129998;28;20035;-48
2022/07/18 02:46:36;;;;;;;10.40;3.97;;;;;;;18.55;55.21;102225.78;5100946;28;20050;-49
2022/07/18 02:49:04;;;;;;;12.07;4.40;;;;;;;18.51;55.43;102224.72;5103305;28;20093;-50
2022/07/18 02:51:31;;;;;;;8.73;4.10;;;;;;;18.50;55.62;102228.59;5124519;28;20047;-49
2022/07/18 02:53:59;;;;;;;9.85;4.10;;;;;;;18.47;55.66;102223.63;5115423;28;20047;-51
2022/07/18 02:56:26;;;;;;;10.15;4.50;;;;;;;18.44;55.77;102225.03;5122762;28;20036;-50
2022/07/18 02:58:54;;;;;;;8.90;4.28;;;;;;;18.41;56.01;102233.06;5102454;28;20042;-48
2022/07/18 03:01:22;;;;;;;8.88;4.45;;;;;;;18.43;56.21;102225.34;5111161;28;20047;-50
2022/07/18 03:03:50;;;;;;;9.20;4.47;;;;;;;18.45;56.02;102221.19;5131521;28;20103;-48
2022/07/18 03:06:17;;;;;;;8.55;3.60;;;;;;;18.45;56.06;102220.38;5119115;28;20096;-50
2022/07/18 03:08:45;;;;;;;9.63;4.22;;;;;;;18.44;55.87;102221.44;5129674;28;20040;-51
2022/07/18 03:11:13;;;;;;;8.73;4.20;;;;;;;18.44;55.74;102214.00;5118002;28;20040;-49
2022/07/18 03:13:40;;;;;;;8.98;4.10;;;;;;;18.42;55.83;102218.16;5125894;28;20429;-49
2022/07/18 03:16:08;;;;;;;7.15;4.00;;;;;;;18.38;56.13;102214.34;5133559;28;20385;-50
2022/07/18 03:18:35;;;;;;;8.48;4.32;;;;;;;18.37;56.00;102201.63;5112336;27;20398;-49
2022/07/18 03:21:03;;;;;;;9.45;4.30;;;;;;;18.36;56.21;102202.75;5111681;27;20886;-48
2022/07/18 03:23:31;;;;;;;8.43;4.25;;;;;;;18.34;56.25;102202.22;5125398;27;20043;-50
2022/07/18 03:25:58;;;;;;;10.45;4.18;;;;;;;18.30;56.25;102202.81;5133087;27;20035;-49
2022/07/18 03:28:26;;;;;;;10.60;4.20;;;;;;;18.30;56.18;102196.44;5137510;27;20039;-48
2022/07/18 03:30:54;;;;;;;9.93;4.10;;;;;;;18.30;56.11;102191.75;5122990;27;20031;-48
2022/07/18 03:33:21;;;;;;;8.45;4.15;;;;;;;18.35;55.94;102201.09;5125898;27;20524;-51
2022/07/18 03:35:49;;;;;;;10.07;4.40;;;;;;;18.35;55.77;102190.91;5123105;27;20116;-48
2022/07/18 03:38:16;;;;;;;11.35;4.65;;;;;;;18.36;55.81;102197.25;5136970;27;20061;-48
2022/07/18 03:40:44;;;;;;;13.93;6.57;;;;;;;18.35;56.03;102187.28;5136126;27;20043;-48
2022/07/18 03:43:12;;;;;;;9.95;4.60;;;;;;;18.33;55.80;102190.38;5128285;27;20112;-49
2022/07/18 03:45:40;;;;;;;12.15;5.10;;;;;;;18.29;55.99;102187.34;5118050;27;20450;-53
2022/07/18 03:48:13;;;;;;;10.82;4.70;;;;;;;18.30;55.80;102185.41;5126431;27;20047;-55
2022/07/18 03:50:40;;;;;;;12.40;5.00;;;;;;;18.31;55.82;102185.13;5131580;27;20047;-50
2022/07/18 03:53:08;;;;;;;10.68;4.35;;;;;;;18.36;55.75;102184.25;5129267;27;20040;-50
2022/07/18 03:55:36;;;;;;;8.30;4.03;;;;;;;18.37;55.50;102185.91;5129813;27;20035;-52
2022/07/18 03:58:03;;;;;;;9.95;4.85;;;;;;;18.36;55.83;102181.50;5104050;27;20038;-51
2022/07/18 04:00:31;;;;;;;6.10;3.70;;;;;;;18.41;55.46;102178.69;5131955;27;20043;-48
2022/07/18 04:02:59;;;;;;;8.65;4.88;;;;;;;18.46;55.55;102180.59;5119983;27;20055;-50
2022/07/18 04:05:32;;;;;;;9.80;4.30;;;;;;;18.50;55.32;102178.91;5123390;27;20050;-49
2022/07/18 04:07:59;;;;;;;9.43;4.10;;;;;;;18.48;55.37;102181.13;5132354;27;20047;-49
2022/07/18 04:10:27;;;;;;;10.43;4.30;;;;;;;18.46;55.20;102184.19;5126524;27;20489;-51
2022/07/18 04:12:56;;;;;;;11.55;4.20;;;;;;;18.41;55.45;102180.63;5101676;28;20046;-49
2022/07/18 04:15:25;;;;;;;11.57;4.78;;;;;;;18.40;55.66;102176.22;5133415;27;20039;-50
2022/07/18 04:17:53;;;;;;;9.25;4.80;;;;;;;18.40;55.45;102178.97;5123551;27;20055;-47
2022/07/18 04:20:21;;;;;;;8.07;4.40;;;;;;;18.37;55.61;102174.84;5125920;27;20511;-48
2022/07/18 04:22:57;;;;;;;8.45;4.20;;;;;;;18.37;55.67;102179.56;5125733;27;20062;-50
2022/07/18 04:25:33;;;;;;;8.57;3.92;;;;;;;18.33;55.80;102178.47;5108087;27;20039;-49
2022/07/18 04:28:02;;;;;;;12.75;4.30;;;;;;;18.29;55.92;102173.53;5134849;27;20118;-51
2022/07/18 04:30:30;;;;;;;9.95;4.53;;;;;;;18.33;55.90;102178.47;5114099;27;20126;-49
2022/07/18 04:32:58;;;;;;;9.73;4.82;;;;;;;18.36;55.80;102170.47;5123285;27;20042;-49
2022/07/18 04:35:25;;;;;;;13.05;4.50;;;;;;;18.41;55.76;102169.59;5098378;27;20051;-50
2022/07/18 04:37:53;;;;;;;12.60;4.90;;;;;;;18.39;55.69;102160.78;5119394;27;20032;-49
2022/07/18 04:40:21;;;;;;;10.57;4.72;;;;;;;18.40;55.81;102155.00;5122013;27;20122;-49
2022/07/18 04:42:48;;;;;;;12.25;4.55;;;;;;;18.44;55.61;102158.78;5103386;27;20047;-52
2022/07/18 04:45:18;;;;;;;7.22;4.00;;;;;;;18.46;55.60;102156.56;5133877;27;20035;-51
2022/07/18 04:47:45;;;;;;;10.30;4.78;;;;;;;18.49;55.68;102152.41;5130459;27;20027;-51
2022/07/18 04:50:13;;;;;;;9.05;4.25;;;;;;;18.52;55.56;102160.13;5128627;27;20050;-49
2022/07/18 04:52:43;;;;;;;10.07;4.25;;;;;;;18.54;55.33;102155.13;5120483;27;20038;-48
2022/07/18 04:55:12;;;;;;;9.57;4.55;;;;;;;18.55;55.27;102156.78;5123538;27;20042;-49
2022/07/18 04:57:40;;;;;;;10.93;5.18;;;;;;;18.60;55.09;102151.22;5129372;27;20043;-49
2022/07/18 05:00:11;;;;;;;12.05;5.00;;;;;;;18.62;55.00;102154.50;5133454;27;20046;-50
2022/07/18 05:02:42;;;;;;;9.45;4.07;;;;;;;18.64;55.23;102151.44;5123679;27;20050;-50
2022/07/18 05:05:12;;;;;;;8.70;4.35;;;;;;;18.67;55.18;102162.75;5104415;27;20061;-48
2022/07/18 05:07:41;;;;;;;10.40;4.82;;;;;;;18.72;54.86;102159.13;5112514;27;20043;-48
2022/07/18 05:10:10;;;;;;;8.43;4.50;;;;;;;18.74;54.65;102163.22;5131067;27;20036;-51
2022/07/18 05:12:42;;;;;;;13.45;4.88;;;;;;;18.79;54.46;102165.16;5106039;27;20552;-48
2022/07/18 05:15:13;;;;;;;8.25;4.20;;;;;;;18.84;54.65;102158.75;5132608;27;20041;-54
2022/07/18 05:17:41;;;;;;;9.07;5.00;;;;;;;18.91;54.64;102156.50;5134347;27;20307;-50
2022/07/18 05:20:12;;;;;;;8.85;4.10;;;;;;;18.97;54.29;102154.47;5101405;28;20042;-52
2022/07/18 05:22:40;;;;;;;11.05;4.90;;;;;;;19.03;54.10;102150.56;5104680;27;20554;-50
2022/07/18 05:25:09;;;;;;;8.63;4.50;;;;;;;19.05;53.77;102156.59;5134437;27;20031;-51
2022/07/18 05:27:37;;;;;;;12.45;4.47;;;;;;;19.06;53.95;102153.53;5104256;27;20031;-50
2022/07/18 05:30:06;;;;;;;9.48;4.75;;;;;;;19.08;54.04;102151.31;5110504;27;20534;-49
2022/07/18 05:32:34;;;;;;;10.73;4.85;;;;;;;19.12;53.68;102149.63;5128080;27;20043;-52
2022/07/18 05:35:02;;;;;;;12.80;5.85;;;;;;;19.15;53.66;102157.31;5122986;27;20039;-49
2022/07/18 05:37:29;;;;;;;17.60;8.80;;;;;;;19.18;53.64;102160.63;5113597;27;20073;-49
2022/07/18 05:39:57;;;;;;;24.80;13.50;;;;;;;19.21;53.55;102160.03;5123226;27;20043;-49
2022/07/18 05:42:25;;;;;;;15.57;9.57;;;;;;;19.24;53.15;102160.28;5128935;27;20043;-49
2022/07/18 05:45:12;;;;;;;29.13;19.23;;;;;;;19.27;52.94;102154.16;5103595;27;20031;-52
2022/07/18 05:47:40;;;;;;;23.30;14.18;;;;;;;19.32;53.01;102150.50;5102352;27;20043;-49
2022/07/18 05:50:10;;;;;;;16.52;5.68;;;;;;;19.35;52.08;102167.31;5111823;27;20055;-48
2022/07/18 05:52:38;;;;;;;11.95;5.35;;;;;;;19.36;52.25;102154.31;5118530;27;20059;-50
2022/07/18 05:55:06;;;;;;;8.98;5.40;;;;;;;19.36;52.50;102163.44;5133664;27;20043;-49
2022/07/18 05:57:34;;;;;;;10.93;4.40;;;;;;;19.39;52.32;102162.03;5127944;27;20039;-51
2022/07/18 06:00:05;;;;;;;16.48;4.57;;;;;;;19.40;52.30;102169.19;5120433;27;20071;-52
2022/07/18 06:02:35;;;;;;;17.45;5.20;;;;;;;19.39;52.52;102167.56;5129632;27;20047;-50
2022/07/18 06:05:04;;;;;;;12.82;4.75;;;;;;;19.40;52.40;102169.19;5116467;27;20035;-51
2022/07/18 06:07:52;;;;;;;9.85;5.70;;;;;;;19.42;52.62;102163.38;5129846;27;20039;-46
2022/07/18 06:10:21;;;;;;;16.58;8.70;;;;;;;19.43;52.59;102167.78;5123514;27;20497;-50
2022/07/18 06:12:49;;;;;;;18.83;8.80;;;;;;;19.46;52.55;102167.19;5120984;27;20040;-48
2022/07/18 06:15:18;;;;;;;16.27;7.80;;;;;;;19.51;52.59;102167.13;5112682;28;20489;-48
2022/07/18 06:17:45;;;;;;;12.63;5.82;;;;;;;19.52;52.59;102155.75;5114992;28;20126;-49
2022/07/18 06:20:13;;;;;;;10.95;5.43;;;;;;;19.52;52.84;102150.22;5132690;27;20044;-47
2022/07/18 06:22:41;;;;;;;12.70;5.00;;;;;;;19.53;53.22;102151.91;5133607;27;20042;-47
2022/07/18 06:25:09;;;;;;;17.60;10.85;;;;;;;19.54;53.16;102150.75;5097169;28;20047;-47
2022/07/18 06:27:36;;;;;;;14.45;7.53;;;;;;;19.57;53.73;102150.16;5133662;28;20050;-50
2022/07/18 06:30:06;;;;;;;28.35;19.02;;;;;;;19.59;53.52;102150.69;5127384;28;20043;-46
2022/07/18 06:32:33;;;;;;;14.32;6.65;;;;;;;19.61;53.54;102155.13;5100053;28;20050;-48
2022/07/18 06:35:01;;;;;;;12.88;8.45;;;;;;;19.59;53.61;102142.41;5121576;28;20040;-47
2022/07/18 06:37:28;;;;;;;13.98;5.97;;;;;;;19.61;53.93;102135.78;5096447;28;20035;-46
2022/07/18 06:39:56;;;;;;;9.48;4.63;;;;;;;19.61;54.35;102125.53;5123692;28;20043;-49
2022/07/18 06:42:30;;;;;;;11.95;5.25;;;;;;;19.64;54.29;102130.44;5133613;28;20031;-50
2022/07/18 06:44:58;;;;;;;10.32;4.80;;;;;;;19.66;54.56;102127.41;5113664;28;20039;-50
2022/07/18 06:47:26;;;;;;;13.57;5.80;;;;;;;19.66;55.06;102127.41;5126879;28;20048;-51
2022/07/18 06:49:53;;;;;;;12.02;5.65;;;;;;;19.64;55.17;102121.34;5108937;28;20355;-52
2022/07/18 06:52:21;;;;;;;10.98;5.35;;;;;;;19.63;55.46;102130.75;5132919;27;20043;-51
2022/07/18 06:54:49;;;;;;;17.70;6.15;;;;;;;19.63;55.64;102130.75;5119216;27;20092;-51
2022/07/18 06:57:18;;;;;;;10.48;5.22;;;;;;;19.64;55.85;102132.41;5133040;27;20048;-48
2022/07/18 06:59:46;;;;;;;16.42;5.95;;;;;;;19.65;55.90;102136.78;5104624;27;20042;-49
2022/07/18 07:02:18;;;;;;;14.30;5.82;;;;;;;19.67;56.21;102127.09;5135886;27;20062;-51
2022/07/18 07:04:46;;;;;;;15.50;5.93;;;;;;;19.71;55.82;102130.13;5137481;27;20062;-49
2022/07/18 07:07:14;;;;;;;54.90;14.95;;;;;;;19.76;55.69;102127.28;5136326;27;20043;-44
2022/07/18 07:09:41;;;;;;;18.98;7.22;;;;;;;19.81;55.59;102131.91;5122180;27;20039;-50
2022/07/18 07:12:09;;;;;;;16.63;6.40;;;;;;;19.85;54.95;102142.09;5134377;27;20043;-50
2022/07/18 07:14:37;;;;;;;11.23;4.90;;;;;;;19.85;54.36;102136.56;5123178;27;20081;-49
2022/07/18 07:17:05;;;;;;;14.23;5.32;;;;;;;19.87;54.32;102137.09;5123265;27;20560;-50
2022/07/18 07:19:33;;;;;;;16.02;6.20;;;;;;;19.93;54.24;102143.34;5126946;27;20031;-51
2022/07/18 07:22:00;;;;;;;17.75;6.82;;;;;;;19.98;54.41;102135.78;5134190;27;20035;-52
2022/07/18 07:24:28;;;;;;;17.58;5.75;;;;;;;20.04;54.19;102138.50;5129475;27;20035;-49
2022/07/18 07:26:56;;;;;;;12.73;5.47;;;;;;;20.09;54.34;102136.47;5134259;27;20036;-50
2022/07/18 07:29:23;;;;;;;15.23;5.30;;;;;;;20.15;53.95;102135.25;5118351;27;20505;-51
2022/07/18 07:31:51;;;;;;;16.55;5.88;;;;;;;20.20;53.96;102134.34;5116271;27;20043;-54
2022/07/18 07:34:19;;;;;;;11.38;4.93;;;;;;;20.25;53.92;102137.03;5132204;27;20031;-49
2022/07/18 07:36:46;;;;;;;15.60;5.22;;;;;;;20.28;53.82;102144.75;5129432;27;20039;-53
2022/07/18 07:39:14;;;;;;;13.05;5.63;;;;;;;20.32;53.83;102145.78;5127050;27;20044;-51
2022/07/18 07:41:42;;;;;;;16.30;6.18;;;;;;;20.37;54.04;102131.03;5136448;27;20065;-51
2022/07/18 07:44:18;;;;;;;15.15;5.43;;;;;;;20.39;53.83;102129.59;5130634;27;20035;-53
2022/07/18 07:46:45;;;;;;;9.82;5.20;;;;;;;20.43;54.24;102124.28;5128642;27;20035;-53
2022/07/18 07:49:13;;;;;;;13.27;6.00;;;;;;;20.46;54.05;102111.78;5132930;27;20042;-53
2022/07/18 07:51:41;;;;;;;14.70;5.85;;;;;;;20.48;53.83;102107.59;5109796;27;20076;-47
2022/07/18 07:54:09;;;;;;;14.73;6.80;;;;;;;20.53;54.01;102101.97;5113727;27;20039;-54
2022/07/18 07:56:37;;;;;;;13.82;6.28;;;;;;;20.56;54.01;102100.56;5118546;27;20489;-54
2022/07/18 07:59:04;;;;;;;16.67;6.88;;;;;;;20.60;54.54;102107.13;5136692;27;20045;-52
2022/07/18 08:01:32;;;;;;;16.33;6.85;;;;;;;20.66;54.69;102100.41;5118212;27;20509;-55
2022/07/18 08:04:00;;;;;;;12.20;5.97;;;;;;;20.68;55.32;102094.53;5135717;27;20047;-54
2022/07/18 08:06:28;;;;;;;17.95;6.53;;;;;;;20.69;55.77;102083.16;5117929;27;20107;-50
2022/07/18 08:08:56;;;;;;;15.05;6.72;;;;;;;20.74;56.13;102085.81;5136596;27;20061;-51
2022/07/18 08:11:26;;;;;;;14.25;6.95;;;;;;;20.80;56.13;102089.31;5136486;27;20043;-54
2022/07/18 08:13:54;;;;;;;14.98;6.05;;;;;;;20.83;56.10;102094.25;5135682;27;20513;-51
2022/07/18 08:16:22;;;;;;;13.25;6.65;;;;;;;20.86;56.00;102096.41;5120664;27;20043;-50
2022/07/18 08:18:50;;;;;;;14.10;6.80;;;;;;;20.88;56.02;102101.63;5116478;27;20038;-51
2022/07/18 08:21:17;;;;;;;13.82;6.40;;;;;;;20.92;55.49;102113.75;5117433;27;20039;-52
2022/07/18 08:23:47;;;;;;;13.38;5.88;;;;;;;20.95;55.22;102105.66;5098030;27;20042;-51
2022/07/18 08:26:15;;;;;;;15.05;5.85;;;;;;;20.98;55.19;102105.03;5135890;27;20062;-51
2022/07/18 08:28:42;;;;;;;16.33;6.43;;;;;;;21.04;55.12;102105.72;5121617;27;20044;-50
2022/07/18 08:31:10;;;;;;;12.13;6.15;;;;;;;21.07;54.98;102107.91;5109001;28;20080;-50
2022/07/18 08:33:38;;;;;;;10.95;5.80;;;;;;;21.12;54.97;102105.03;5129901;27;20065;-50
2022/07/18 08:36:08;;;;;;;13.57;5.75;;;;;;;21.18;54.43;102105.75;5135923;27;20031;-50
2022/07/18 08:38:35;;;;;;;12.50;6.25;;;;;;;21.22;54.32;102115.91;5135841;27;20039;-51
2022/07/18 08:41:04;;;;;;;14.63;6.28;;;;;;;21.28;53.21;102109.09;5125815;27;20046;-53
2022/07/18 08:43:31;;;;;;;11.77;5.65;;;;;;;21.39;52.28;102103.38;5117487;27;20489;-49
2022/07/18 08:46:05;;;;;;;10.07;4.30;;;;;;;21.47;50.36;102106.25;5135388;27;20035;-50
2022/07/18 08:48:33;;;;;;;11.68;4.88;;;;;;;21.56;50.29;102105.53;5135647;27;20055;-51
2022/07/18 08:51:01;;;;;;;10.07;4.55;;;;;;;21.60;49.80;102112.06;5135372;27;20042;-53
2022/07/18 08:53:29;;;;;;;7.07;3.67;;;;;;;21.63;48.79;102094.81;5121595;27;20508;-53
2022/07/18 08:55:57;;;;;;;11.55;3.70;;;;;;;21.67;47.58;102096.66;5096155;27;20039;-51
2022/07/18 08:58:24;;;;;;;9.55;3.10;;;;;;;21.70;47.36;102098.81;5117136;27;20043;-49
2022/07/18 09:01:12;;;;;;;9.90;3.92;;;;;;;21.76;46.84;102087.59;5120031;27;20035;-50
2022/07/18 09:03:40;;;;;;;8.98;3.92;;;;;;;21.80;47.43;102083.06;5100704;27;20051;-50
2022/07/18 09:06:13;;;;;;;10.32;3.20;;;;;;;21.83;46.61;102094.34;5130689;27;20096;-50
2022/07/18 09:08:57;;;;;;;7.40;3.03;;;;;;;21.87;47.08;102086.22;5115791;27;20043;-49
2022/07/18 09:11:25;;;;;;;4.32;2.70;;;;;;;21.95;46.93;102085.47;5117338;27;20066;-52
2022/07/18 09:14:27;;;;;;;8.43;3.20;;;;;;;21.99;45.66;102086.47;5135172;27;20092;-50
2022/07/18 09:17:05;;;;;;;9.88;3.30;;;;;;;22.07;45.37;102087.66;5133747;27;20035;-50
2022/07/18 09:19:33;;;;;;;9.07;2.90;;;;;;;22.14;45.80;102088.03;5104988;28;20416;-50
2022/07/18 09:22:21;;;;;;;9.00;3.20;;;;;;;22.23;46.07;102097.28;5131283;27;20073;-51
2022/07/18 09:24:57;;;;;;;11.13;3.92;;;;;;;22.30;45.31;102091.31;5104748;28;20071;-50
2022/07/18 09:27:27;;;;;;;6.30;3.03;;;;;;;22.35;45.21;102093.94;5134365;27;20047;-52
2022/07/18 09:30:15;;;;;;;7.47;3.45;;;;;;;22.41;45.91;102100.19;5131644;27;20110;-50
2022/07/18 09:32:45;;;;;;;11.23;3.70;;;;;;;22.46;45.33;102097.25;5121377;27;20127;-50
2022/07/18 09:35:16;;;;;;;7.93;3.38;;;;;;;22.50;44.54;102090.75;5134555;27;20049;-50
2022/07/18 09:38:09;;;;;;;7.22;2.88;;;;;;;22.57;44.22;102097.81;5118951;27;20032;-51
2022/07/18 09:40:57;;;;;;;6.68;2.78;;;;;;;22.62;43.37;102095.72;5112166;27;20401;-50
2022/07/18 09:43:27;;;;;;;5.45;2.55;;;;;;;22.65;41.98;102095.06;5133262;27;20087;-48
2022/07/18 09:45:56;;;;;;;6.22;2.58;;;;;;;22.69;41.45;102103.59;5134581;27;20226;-50
2022/07/18 09:48:27;;;;;;;6.30;2.67;;;;;;;22.72;41.70;102097.41;5116605;27;20051;-49
2022/07/18 09:51:03;;;;;;;6.25;2.63;;;;;;;22.78;41.67;102098.91;5116249;27;20039;-49
2022/07/18 09:53:32;;;;;;;7.88;3.00;;;;;;;22.84;41.67;102092.06;5134632;27;20110;-50
2022/07/18 09:56:33;;;;;;;7.57;2.45;;;;;;;22.89;41.34;102083.56;5121547;27;20070;-50
2022/07/18 09:59:01;;;;;;;7.65;3.13;;;;;;;22.98;40.80;102089.22;5134317;27;20398;-50
2022/07/18 10:01:29;;;;;;;6.18;2.72;;;;;;;23.05;41.12;102095.13;5134010;27;20063;-50
2022/07/18 10:03:59;;;;;;;6.10;2.30;;;;;;;23.13;41.23;102091.53;5134441;27;20393;-50
2022/07/18 10:06:27;;;;;;;12.98;2.92;;;;;;;23.20;40.78;102085.50;5134293;27;20508;-52
2022/07/18 10:08:55;;;;;;;7.70;3.03;;;;;;;23.30;41.23;102084.38;5107097;27;20031;-51
2022/07/18 10:11:23;;;;;;;8.13;3.20;;;;;;;23.33;41.23;102089.28;5118345;27;20452;-50
2022/07/18 10:13:53;;;;;;;8.73;2.80;;;;;;;23.38;40.86;102078.84;5113155;27;20039;-50
2022/07/18 10:16:27;;;;;;;6.35;2.53;;;;;;;23.46;40.58;102077.22;5110028;27;20040;-50
2022/07/18 10:18:54;;;;;;;8.75;2.90;;;;;;;23.57;40.70;102074.91;5117921;28;20066;-49
2022/07/18 10:21:22;;;;;;;10.65;2.95;;;;;;;23.61;40.87;102071.16;5132637;27;20130;-50
2022/07/18 10:23:51;;;;;;;8.10;3.10;;;;;;;23.69;40.59;102077.91;5119512;27;20039;-48
2022/07/18 10:26:26;;;;;;;10.05;2.65;;;;;;;23.72;40.66;102068.88;5109399;28;20047;-47
2022/07/18 10:28:57;;;;;;;7.53;2.83;;;;;;;23.76;41.72;102069.06;5121848;28;20047;-49
2022/07/18 10:31:37;;;;;;;4.95;2.40;;;;;;;23.85;41.51;102077.44;5124916;28;20039;-46
2022/07/18 10:34:07;;;;;;;6.68;2.70;;;;;;;23.87;41.01;102072.34;5129244;28;20036;-49
2022/07/18 10:36:37;;;;;;;4.25;2.42;;;;;;;23.87;40.85;102069.56;5124478;28;20122;-51
2022/07/18 10:39:06;;;;;;;9.25;2.80;;;;;;;23.87;41.29;102069.56;5128861;28;20401;-50
2022/07/18 10:41:42;;;;;;;6.75;2.50;;;;;;;23.95;40.97;102061.19;5118413;28;20074;-53
2022/07/18 10:44:25;;;;;;;7.85;3.00;;;;;;;24.05;40.81;102064.78;5130586;28;20043;-53
2022/07/18 10:47:27;;;;;;;9.23;2.65;;;;;;;24.10;40.89;102062.69;5134564;28;20043;-56
2022/07/18 10:49:57;;;;;;;10.30;3.22;;;;;;;24.17;40.58;102068.56;4400194;28;10000793;-54
2022/07/18 10:52:33;;;;;;;5.53;2.50;;;;;;;24.18;40.61;102070.19;5124873;28;20031;-52
2022/07/18 10:55:01;;;;;;;;;;;;;;;24.22;40.48;102062.81;5130709;28;20130;-48
2022/07/18 10:57:29;;;;;;;6.88;2.80;;;;;;;24.20;40.61;102062.31;5127528;28;19950;-54
2022/07/18 11:00:13;;;;;;;6.20;2.67;;;;;;;24.26;40.86;102062.13;5112340;28;20371;-49
2022/07/18 11:02:47;;;;;;;6.85;3.50;;;;;;;24.29;40.17;102062.28;5129941;28;20062;-48
2022/07/18 11:05:27;;;;;;;7.70;3.17;;;;;;;24.32;40.24;102053.28;5122563;28;20039;-51
2022/07/18 11:08:08;;;;;;;7.93;2.85;;;;;;;24.49;39.94;102058.00;5118919;28;20126;-49
2022/07/18 11:13:25;;;;;;;6.85;2.67;;;;;;;24.59;40.40;102056.81;5116326;28;20043;-51
2022/07/18 11:16:08;;;;;;;10.98;2.75;;;;;;;24.61;40.04;102051.75;5117380;28;20066;-52
2022/07/18 11:18:43;;;;;;;8.75;2.95;;;;;;;24.67;40.06;102055.97;5126743;28;20093;-50
2022/07/18 11:21:25;;;;;;;7.32;2.80;;;;;;;24.69;40.23;102041.72;5103626;28;20047;-50
2022/07/18 11:23:54;;;;;;;8.57;2.97;;;;;;;24.81;39.47;102039.03;5092372;28;20047;-52
2022/07/18 11:26:23;;;;;;;10.23;3.28;;;;;;;24.85;39.36;102042.78;5130210;28;20054;-49
2022/07/18 11:29:05;;;;;;;7.47;3.05;;;;;;;24.89;39.65;102035.34;5129141;28;20122;-51
2022/07/18 11:31:52;;;;;;;4.35;2.50;;;;;;;24.95;39.77;102041.56;5130456;28;20047;-52
2022/07/18 11:34:22;;;;;;;6.63;3.17;;;;;;;24.96;39.30;102043.19;5122809;28;20035;-50
2022/07/18 11:37:07;;;;;;;7.90;3.00;;;;;;;25.02;39.00;102028.72;5089430;28;20100;-47
2022/07/18 11:39:35;;;;;;;6.90;2.60;;;;;;;25.08;39.28;102024.56;5106124;28;20040;-46